sensor_id;sensor_type;location;lat;lon;timestamp;temperature;humidity
26164;DHT22;13914;48.178;11.716;2024-03-02T00:00:01;7.40;15.20
26164;DHT22;13914;48.178;11.716;2024-03-02T00:02:39;7.30;15.80
26164;DHT22;13914;48.178;11.716;2024-03-02T00:05:06;7.30;15.20
26164;DHT22;13914;48.178;11.716;2024-03-02T00:07:32;7.30;15.20
26164;DHT22;13914;48.178;11.716;2024-03-02T00:09:58;7.30;15.20
26164;DHT22;13914;48.178;11.716;2024-03-02T00:12:25;7.30;15.20
26164;DHT22;13914;48.178;11.716;2024-03-02T00:14:51;7.30;15.20
26164;DHT22;13914;48.178;11.716;2024-03-02T00:17:21;7.30;15.30
26164;DHT22;13914;48.178;11.716;2024-03-02T00:19:50;7.20;15.30
26164;DHT22;13914;48.178;11.716;2024-03-02T00:22:15;7.30;15.30
26164;DHT22;13914;48.178;11.716;2024-03-02T00:24:41;7.30;15.40
26164;DHT22;13914;48.178;11.716;2024-03-02T00:27:08;7.20;15.20
26164;DHT22;13914;48.178;11.716;2024-03-02T00:29:36;7.20;15.30
26164;DHT22;13914;48.178;11.716;2024-03-02T00:32:02;7.20;15.30
26164;DHT22;13914;48.178;11.716;2024-03-02T00:34:28;7.20;15.30
26164;DHT22;13914;48.178;11.716;2024-03-02T00:36:56;7.20;15.30
26164;DHT22;13914;48.178;11.716;2024-03-02T00:39:22;7.20;15.20
26164;DHT22;13914;48.178;11.716;2024-03-02T00:41:48;7.20;15.20
26164;DHT22;13914;48.178;11.716;2024-03-02T00:44:15;7.20;15.30
26164;DHT22;13914;48.178;11.716;2024-03-02T00:46:41;7.20;15.30
26164;DHT22;13914;48.178;11.716;2024-03-02T00:51:46;7.10;15.30
26164;DHT22;13914;48.178;11.716;2024-03-02T00:54:14;7.10;15.30
26164;DHT22;13914;48.178;11.716;2024-03-02T00:56:41;7.20;15.90
26164;DHT22;13914;48.178;11.716;2024-03-02T00:59:07;7.20;15.40
26164;DHT22;13914;48.178;11.716;2024-03-02T01:01:34;7.10;15.30
26164;DHT22;13914;48.178;11.716;2024-03-02T01:04:00;7.10;15.30
26164;DHT22;13914;48.178;11.716;2024-03-02T01:06:25;7.20;15.40
26164;DHT22;13914;48.178;11.716;2024-03-02T01:08:51;7.10;15.40
26164;DHT22;13914;48.178;11.716;2024-03-02T01:11:17;7.10;15.30
26164;DHT22;13914;48.178;11.716;2024-03-02T01:13:44;7.10;15.40
26164;DHT22;13914;48.178;11.716;2024-03-02T01:16:10;7.00;15.30
26164;DHT22;13914;48.178;11.716;2024-03-02T01:18:36;7.00;15.30
26164;DHT22;13914;48.178;11.716;2024-03-02T01:21:01;7.10;15.30
26164;DHT22;13914;48.178;11.716;2024-03-02T01:23:27;7.00;15.30
26164;DHT22;13914;48.178;11.716;2024-03-02T01:25:53;7.10;15.30
26164;DHT22;13914;48.178;11.716;2024-03-02T01:28:21;7.00;15.40
26164;DHT22;13914;48.178;11.716;2024-03-02T01:30:47;7.00;15.40
26164;DHT22;13914;48.178;11.716;2024-03-02T01:33:13;7.00;15.30
26164;DHT22;13914;48.178;11.716;2024-03-02T01:35:39;7.00;15.20
26164;DHT22;13914;48.178;11.716;2024-03-02T01:38:05;7.00;15.30
26164;DHT22;13914;48.178;11.716;2024-03-02T01:40:34;7.00;15.30
26164;DHT22;13914;48.178;11.716;2024-03-02T01:43:00;7.00;15.30
26164;DHT22;13914;48.178;11.716;2024-03-02T01:45:28;7.00;15.30
26164;DHT22;13914;48.178;11.716;2024-03-02T01:47:53;7.00;15.30
26164;DHT22;13914;48.178;11.716;2024-03-02T01:50:26;7.00;15.30
26164;DHT22;13914;48.178;11.716;2024-03-02T01:52:54;6.90;15.30
26164;DHT22;13914;48.178;11.716;2024-03-02T01:55:20;7.00;15.30
26164;DHT22;13914;48.178;11.716;2024-03-02T01:57:46;7.00;15.30
26164;DHT22;13914;48.178;11.716;2024-03-02T02:00:13;7.00;15.30
26164;DHT22;13914;48.178;11.716;2024-03-02T02:02:39;6.90;15.30
26164;DHT22;13914;48.178;11.716;2024-03-02T02:05:05;6.90;15.20
26164;DHT22;13914;48.178;11.716;2024-03-02T02:07:32;6.90;15.30
26164;DHT22;13914;48.178;11.716;2024-03-02T02:09:58;6.90;15.30
26164;DHT22;13914;48.178;11.716;2024-03-02T02:12:24;6.90;15.30
26164;DHT22;13914;48.178;11.716;2024-03-02T02:14:49;6.90;15.20
26164;DHT22;13914;48.178;11.716;2024-03-02T02:17:15;6.90;15.30
26164;DHT22;13914;48.178;11.716;2024-03-02T02:19:42;6.90;15.30
26164;DHT22;13914;48.178;11.716;2024-03-02T02:22:08;6.90;15.40
26164;DHT22;13914;48.178;11.716;2024-03-02T02:24:35;6.90;16.00
26164;DHT22;13914;48.178;11.716;2024-03-02T02:27:00;6.90;15.40
26164;DHT22;13914;48.178;11.716;2024-03-02T02:29:26;6.90;15.30
26164;DHT22;13914;48.178;11.716;2024-03-02T02:31:53;6.80;15.40
26164;DHT22;13914;48.178;11.716;2024-03-02T02:34:19;6.90;15.40
26164;DHT22;13914;48.178;11.716;2024-03-02T02:36:45;6.80;15.30
26164;DHT22;13914;48.178;11.716;2024-03-02T02:39:11;6.80;15.30
26164;DHT22;13914;48.178;11.716;2024-03-02T02:41:39;6.80;15.50
26164;DHT22;13914;48.178;11.716;2024-03-02T02:44:05;6.80;15.50
26164;DHT22;13914;48.178;11.716;2024-03-02T02:46:32;6.80;15.50
26164;DHT22;13914;48.178;11.716;2024-03-02T02:48:59;6.80;15.40
26164;DHT22;13914;48.178;11.716;2024-03-02T02:51:24;6.80;15.40
26164;DHT22;13914;48.178;11.716;2024-03-02T02:53:53;6.80;15.40
26164;DHT22;13914;48.178;11.716;2024-03-02T02:56:18;6.80;15.50
26164;DHT22;13914;48.178;11.716;2024-03-02T02:58:44;6.80;15.50
26164;DHT22;13914;48.178;11.716;2024-03-02T03:01:10;6.80;15.50
26164;DHT22;13914;48.178;11.716;2024-03-02T03:03:36;6.70;15.50
26164;DHT22;13914;48.178;11.716;2024-03-02T03:06:01;6.80;15.50
26164;DHT22;13914;48.178;11.716;2024-03-02T03:08:27;6.80;15.50
26164;DHT22;13914;48.178;11.716;2024-03-02T03:10:54;6.70;15.50
26164;DHT22;13914;48.178;11.716;2024-03-02T03:13:19;6.80;15.50
26164;DHT22;13914;48.178;11.716;2024-03-02T03:15:45;6.80;15.50
26164;DHT22;13914;48.178;11.716;2024-03-02T03:18:11;6.70;15.50
26164;DHT22;13914;48.178;11.716;2024-03-02T03:20:37;6.70;15.50
26164;DHT22;13914;48.178;11.716;2024-03-02T03:23:02;6.70;15.60
26164;DHT22;13914;48.178;11.716;2024-03-02T03:25:29;6.70;15.60
26164;DHT22;13914;48.178;11.716;2024-03-02T03:27:57;6.70;15.60
26164;DHT22;13914;48.178;11.716;2024-03-02T03:30:22;6.70;15.60
26164;DHT22;13914;48.178;11.716;2024-03-02T03:32:48;6.70;15.60
26164;DHT22;13914;48.178;11.716;2024-03-02T03:35:14;6.70;15.70
26164;DHT22;13914;48.178;11.716;2024-03-02T03:37:41;6.70;15.60
26164;DHT22;13914;48.178;11.716;2024-03-02T03:40:07;6.70;15.70
26164;DHT22;13914;48.178;11.716;2024-03-02T03:42:38;6.70;15.70
26164;DHT22;13914;48.178;11.716;2024-03-02T03:45:04;6.70;15.60
26164;DHT22;13914;48.178;11.716;2024-03-02T03:47:31;6.70;15.60
26164;DHT22;13914;48.178;11.716;2024-03-02T03:49:57;6.70;15.70
26164;DHT22;13914;48.178;11.716;2024-03-02T03:52:24;6.70;15.70
26164;DHT22;13914;48.178;11.716;2024-03-02T03:54:50;6.70;15.70
26164;DHT22;13914;48.178;11.716;2024-03-02T03:57:16;6.70;15.60
26164;DHT22;13914;48.178;11.716;2024-03-02T03:59:42;6.60;15.60
26164;DHT22;13914;48.178;11.716;2024-03-02T04:02:08;6.70;15.60
26164;DHT22;13914;48.178;11.716;2024-03-02T04:04:34;6.60;15.50
26164;DHT22;13914;48.178;11.716;2024-03-02T04:07:00;6.60;15.50
26164;DHT22;13914;48.178;11.716;2024-03-02T04:09:27;6.60;15.50
26164;DHT22;13914;48.178;11.716;2024-03-02T04:11:53;6.60;15.50
26164;DHT22;13914;48.178;11.716;2024-03-02T04:14:19;6.60;15.50
26164;DHT22;13914;48.178;11.716;2024-03-02T04:16:45;6.60;15.50
26164;DHT22;13914;48.178;11.716;2024-03-02T04:19:10;6.60;15.50
26164;DHT22;13914;48.178;11.716;2024-03-02T04:21:36;6.60;15.50
26164;DHT22;13914;48.178;11.716;2024-03-02T04:24:02;6.60;15.50
26164;DHT22;13914;48.178;11.716;2024-03-02T04:26:28;6.60;15.50
26164;DHT22;13914;48.178;11.716;2024-03-02T04:28:54;6.60;15.40
26164;DHT22;13914;48.178;11.716;2024-03-02T04:31:20;6.60;15.50
26164;DHT22;13914;48.178;11.716;2024-03-02T04:33:46;6.60;15.50
26164;DHT22;13914;48.178;11.716;2024-03-02T04:36:12;6.60;15.40
26164;DHT22;13914;48.178;11.716;2024-03-02T04:38:39;6.60;15.50
26164;DHT22;13914;48.178;11.716;2024-03-02T04:41:05;6.60;15.50
26164;DHT22;13914;48.178;11.716;2024-03-02T04:43:31;6.60;15.50
26164;DHT22;13914;48.178;11.716;2024-03-02T04:45:57;6.60;15.40
26164;DHT22;13914;48.178;11.716;2024-03-02T04:48:23;6.60;15.50
26164;DHT22;13914;48.178;11.716;2024-03-02T04:50:49;6.50;15.50
26164;DHT22;13914;48.178;11.716;2024-03-02T04:53:15;6.60;15.40
26164;DHT22;13914;48.178;11.716;2024-03-02T04:55:41;6.60;15.50
26164;DHT22;13914;48.178;11.716;2024-03-02T04:58:06;6.60;15.50
26164;DHT22;13914;48.178;11.716;2024-03-02T05:00:32;6.50;15.40
26164;DHT22;13914;48.178;11.716;2024-03-02T05:02:58;6.50;15.40
26164;DHT22;13914;48.178;11.716;2024-03-02T05:05:24;6.60;15.50
26164;DHT22;13914;48.178;11.716;2024-03-02T05:07:49;6.50;15.50
26164;DHT22;13914;48.178;11.716;2024-03-02T05:10:15;6.50;15.60
26164;DHT22;13914;48.178;11.716;2024-03-02T05:12:41;6.60;16.10
26164;DHT22;13914;48.178;11.716;2024-03-02T05:15:11;6.50;15.60
26164;DHT22;13914;48.178;11.716;2024-03-02T05:17:40;6.50;15.50
26164;DHT22;13914;48.178;11.716;2024-03-02T05:20:08;6.50;15.60
26164;DHT22;13914;48.178;11.716;2024-03-02T05:22:34;6.50;15.60
26164;DHT22;13914;48.178;11.716;2024-03-02T05:25:01;6.50;15.60
26164;DHT22;13914;48.178;11.716;2024-03-02T05:27:27;6.50;15.60
26164;DHT22;13914;48.178;11.716;2024-03-02T05:29:53;6.50;15.70
26164;DHT22;13914;48.178;11.716;2024-03-02T05:32:18;6.50;15.70
26164;DHT22;13914;48.178;11.716;2024-03-02T05:34:44;6.50;15.60
26164;DHT22;13914;48.178;11.716;2024-03-02T05:37:10;6.50;15.60
26164;DHT22;13914;48.178;11.716;2024-03-02T05:39:35;6.50;15.50
26164;DHT22;13914;48.178;11.716;2024-03-02T05:42:01;6.50;15.60
26164;DHT22;13914;48.178;11.716;2024-03-02T05:44:27;6.50;15.60
26164;DHT22;13914;48.178;11.716;2024-03-02T05:46:52;6.50;15.60
26164;DHT22;13914;48.178;11.716;2024-03-02T05:49:18;6.50;15.50
26164;DHT22;13914;48.178;11.716;2024-03-02T05:51:43;6.50;15.60
26164;DHT22;13914;48.178;11.716;2024-03-02T05:54:09;6.50;15.50
26164;DHT22;13914;48.178;11.716;2024-03-02T05:56:35;6.50;15.60
26164;DHT22;13914;48.178;11.716;2024-03-02T05:59:01;6.50;15.60
26164;DHT22;13914;48.178;11.716;2024-03-02T06:01:47;6.50;15.60
26164;DHT22;13914;48.178;11.716;2024-03-02T06:04:13;6.50;15.60
26164;DHT22;13914;48.178;11.716;2024-03-02T06:06:42;6.50;15.60
26164;DHT22;13914;48.178;11.716;2024-03-02T06:09:08;6.50;15.60
26164;DHT22;13914;48.178;11.716;2024-03-02T06:11:35;6.50;15.60
26164;DHT22;13914;48.178;11.716;2024-03-02T06:14:01;6.50;15.60
26164;DHT22;13914;48.178;11.716;2024-03-02T06:16:27;6.50;15.60
26164;DHT22;13914;48.178;11.716;2024-03-02T06:18:53;6.50;15.60
26164;DHT22;13914;48.178;11.716;2024-03-02T06:21:19;6.40;15.60
26164;DHT22;13914;48.178;11.716;2024-03-02T06:23:45;6.50;15.60
26164;DHT22;13914;48.178;11.716;2024-03-02T06:26:11;6.40;15.60
26164;DHT22;13914;48.178;11.716;2024-03-02T06:28:37;6.50;15.70
26164;DHT22;13914;48.178;11.716;2024-03-02T06:31:03;6.40;15.60
26164;DHT22;13914;48.178;11.716;2024-03-02T06:33:29;6.40;15.70
26164;DHT22;13914;48.178;11.716;2024-03-02T06:35:55;6.40;15.70
26164;DHT22;13914;48.178;11.716;2024-03-02T06:38:20;6.40;15.70
26164;DHT22;13914;48.178;11.716;2024-03-02T06:40:46;6.50;15.60
26164;DHT22;13914;48.178;11.716;2024-03-02T06:43:12;6.50;15.70
26164;DHT22;13914;48.178;11.716;2024-03-02T06:45:37;6.50;15.70
26164;DHT22;13914;48.178;11.716;2024-03-02T06:48:03;6.50;15.60
26164;DHT22;13914;48.178;11.716;2024-03-02T06:50:29;6.50;15.60
26164;DHT22;13914;48.178;11.716;2024-03-02T06:52:55;6.40;15.60
26164;DHT22;13914;48.178;11.716;2024-03-02T06:55:23;6.50;15.60
26164;DHT22;13914;48.178;11.716;2024-03-02T06:57:52;6.40;15.50
26164;DHT22;13914;48.178;11.716;2024-03-02T07:00:18;6.50;15.50
26164;DHT22;13914;48.178;11.716;2024-03-02T07:02:45;6.40;15.50
26164;DHT22;13914;48.178;11.716;2024-03-02T07:05:11;6.50;15.50
26164;DHT22;13914;48.178;11.716;2024-03-02T07:07:37;6.50;15.50
26164;DHT22;13914;48.178;11.716;2024-03-02T07:10:03;6.50;15.50
26164;DHT22;13914;48.178;11.716;2024-03-02T07:12:30;6.50;16.10
26164;DHT22;13914;48.178;11.716;2024-03-02T07:14:56;6.50;15.60
26164;DHT22;13914;48.178;11.716;2024-03-02T07:17:27;6.50;15.60
26164;DHT22;13914;48.178;11.716;2024-03-02T07:19:53;6.50;15.60
26164;DHT22;13914;48.178;11.716;2024-03-02T07:22:19;6.50;15.60
26164;DHT22;13914;48.178;11.716;2024-03-02T07:24:45;6.50;15.70
26164;DHT22;13914;48.178;11.716;2024-03-02T07:27:14;6.50;15.60
26164;DHT22;13914;48.178;11.716;2024-03-02T07:29:40;6.50;15.60
26164;DHT22;13914;48.178;11.716;2024-03-02T07:32:06;6.50;15.60
26164;DHT22;13914;48.178;11.716;2024-03-02T07:34:33;6.60;15.70
26164;DHT22;13914;48.178;11.716;2024-03-02T07:36:58;6.60;15.70
26164;DHT22;13914;48.178;11.716;2024-03-02T07:39:24;6.60;15.70
26164;DHT22;13914;48.178;11.716;2024-03-02T07:41:50;6.60;15.70
26164;DHT22;13914;48.178;11.716;2024-03-02T07:44:16;6.60;15.80
26164;DHT22;13914;48.178;11.716;2024-03-02T07:46:47;6.60;15.70
26164;DHT22;13914;48.178;11.716;2024-03-02T07:49:16;6.60;15.70
26164;DHT22;13914;48.178;11.716;2024-03-02T07:51:43;6.70;16.40
26164;DHT22;13914;48.178;11.716;2024-03-02T07:54:08;6.70;15.90
26164;DHT22;13914;48.178;11.716;2024-03-02T07:56:34;6.70;15.90
26164;DHT22;13914;48.178;11.716;2024-03-02T07:59:03;6.70;15.90
26164;DHT22;13914;48.178;11.716;2024-03-02T08:01:29;6.70;16.00
26164;DHT22;13914;48.178;11.716;2024-03-02T08:03:59;6.80;16.00
26164;DHT22;13914;48.178;11.716;2024-03-02T08:06:26;6.80;16.10
26164;DHT22;13914;48.178;11.716;2024-03-02T08:08:56;6.80;16.70
26164;DHT22;13914;48.178;11.716;2024-03-02T08:11:23;6.80;16.20
26164;DHT22;13914;48.178;11.716;2024-03-02T08:13:49;6.80;16.20
26164;DHT22;13914;48.178;11.716;2024-03-02T08:16:15;6.90;16.30
26164;DHT22;13914;48.178;11.716;2024-03-02T08:18:41;6.90;16.30
26164;DHT22;13914;48.178;11.716;2024-03-02T08:21:07;6.90;16.30
26164;DHT22;13914;48.178;11.716;2024-03-02T08:23:34;6.90;16.30
26164;DHT22;13914;48.178;11.716;2024-03-02T08:26:00;6.90;16.30
26164;DHT22;13914;48.178;11.716;2024-03-02T08:28:25;6.90;16.30
26164;DHT22;13914;48.178;11.716;2024-03-02T08:30:51;7.00;16.40
26164;DHT22;13914;48.178;11.716;2024-03-02T08:33:17;7.00;16.40
26164;DHT22;13914;48.178;11.716;2024-03-02T08:35:42;7.10;16.40
26164;DHT22;13914;48.178;11.716;2024-03-02T08:38:08;7.20;16.50
26164;DHT22;13914;48.178;11.716;2024-03-02T08:40:34;7.10;16.60
26164;DHT22;13914;48.178;11.716;2024-03-02T08:43:00;7.20;16.80
26164;DHT22;13914;48.178;11.716;2024-03-02T08:45:25;7.20;16.90
26164;DHT22;13914;48.178;11.716;2024-03-02T08:47:51;7.30;17.00
26164;DHT22;13914;48.178;11.716;2024-03-02T08:50:17;7.30;17.00
26164;DHT22;13914;48.178;11.716;2024-03-02T08:52:42;7.30;17.00
26164;DHT22;13914;48.178;11.716;2024-03-02T08:55:08;7.40;17.00
26164;DHT22;13914;48.178;11.716;2024-03-02T08:57:34;7.40;16.90
26164;DHT22;13914;48.178;11.716;2024-03-02T09:00:00;7.50;16.90
26164;DHT22;13914;48.178;11.716;2024-03-02T09:02:26;7.60;17.00
26164;DHT22;13914;48.178;11.716;2024-03-02T09:04:52;7.60;17.00
26164;DHT22;13914;48.178;11.716;2024-03-02T09:07:18;7.70;17.00
26164;DHT22;13914;48.178;11.716;2024-03-02T09:09:43;7.80;17.00
26164;DHT22;13914;48.178;11.716;2024-03-02T09:12:09;7.90;17.00
26164;DHT22;13914;48.178;11.716;2024-03-02T09:14:36;7.90;16.90
26164;DHT22;13914;48.178;11.716;2024-03-02T09:17:02;8.00;17.00
26164;DHT22;13914;48.178;11.716;2024-03-02T09:19:29;8.10;17.30
26164;DHT22;13914;48.178;11.716;2024-03-02T09:21:54;8.20;17.20
26164;DHT22;13914;48.178;11.716;2024-03-02T09:24:21;8.30;17.30
26164;DHT22;13914;48.178;11.716;2024-03-02T09:26:47;8.30;17.80
26164;DHT22;13914;48.178;11.716;2024-03-02T09:29:13;8.50;17.20
26164;DHT22;13914;48.178;11.716;2024-03-02T09:31:39;8.60;17.30
26164;DHT22;13914;48.178;11.716;2024-03-02T09:34:06;8.70;17.50
26164;DHT22;13914;48.178;11.716;2024-03-02T09:36:32;8.80;17.90
26164;DHT22;13914;48.178;11.716;2024-03-02T09:38:58;8.90;17.90
26164;DHT22;13914;48.178;11.716;2024-03-02T09:41:24;9.10;18.00
26164;DHT22;13914;48.178;11.716;2024-03-02T09:43:50;9.10;18.00
26164;DHT22;13914;48.178;11.716;2024-03-02T09:46:16;9.20;17.90
26164;DHT22;13914;48.178;11.716;2024-03-02T09:48:43;9.30;18.70
26164;DHT22;13914;48.178;11.716;2024-03-02T09:51:09;9.60;18.30
26164;DHT22;13914;48.178;11.716;2024-03-02T09:53:35;9.50;18.30
26164;DHT22;13914;48.178;11.716;2024-03-02T09:56:01;9.70;18.40
26164;DHT22;13914;48.178;11.716;2024-03-02T09:58:27;9.80;18.30
26164;DHT22;13914;48.178;11.716;2024-03-02T10:00:53;9.90;18.00
26164;DHT22;13914;48.178;11.716;2024-03-02T10:03:19;10.00;18.20
26164;DHT22;13914;48.178;11.716;2024-03-02T10:05:46;10.10;18.20
26164;DHT22;13914;48.178;11.716;2024-03-02T10:08:12;10.30;18.20
26164;DHT22;13914;48.178;11.716;2024-03-02T10:10:38;10.40;18.00
26164;DHT22;13914;48.178;11.716;2024-03-02T10:13:09;10.50;18.10
26164;DHT22;13914;48.178;11.716;2024-03-02T10:15:36;10.60;17.60
26164;DHT22;13914;48.178;11.716;2024-03-02T10:18:05;10.80;17.60
26164;DHT22;13914;48.178;11.716;2024-03-02T10:20:34;10.90;17.60
26164;DHT22;13914;48.178;11.716;2024-03-02T10:23:13;11.00;17.40
26164;DHT22;13914;48.178;11.716;2024-03-02T10:25:40;11.10;17.40
26164;DHT22;13914;48.178;11.716;2024-03-02T10:28:06;11.20;17.40
26164;DHT22;13914;48.178;11.716;2024-03-02T10:30:35;11.30;17.20
26164;DHT22;13914;48.178;11.716;2024-03-02T10:33:02;11.50;17.10
26164;DHT22;13914;48.178;11.716;2024-03-02T10:35:28;11.50;16.90
26164;DHT22;13914;48.178;11.716;2024-03-02T10:37:54;11.70;16.70
26164;DHT22;13914;48.178;11.716;2024-03-02T10:40:23;11.70;16.40
26164;DHT22;13914;48.178;11.716;2024-03-02T10:42:52;11.80;16.30
26164;DHT22;13914;48.178;11.716;2024-03-02T10:45:19;11.90;16.10
26164;DHT22;13914;48.178;11.716;2024-03-02T10:47:45;12.00;16.00
26164;DHT22;13914;48.178;11.716;2024-03-02T10:50:12;12.10;15.80
26164;DHT22;13914;48.178;11.716;2024-03-02T10:52:38;12.20;15.60
26164;DHT22;13914;48.178;11.716;2024-03-02T10:55:08;12.30;15.60
26164;DHT22;13914;48.178;11.716;2024-03-02T10:57:41;12.40;15.60
26164;DHT22;13914;48.178;11.716;2024-03-02T11:00:11;12.50;15.40
26164;DHT22;13914;48.178;11.716;2024-03-02T11:02:45;12.60;15.40
26164;DHT22;13914;48.178;11.716;2024-03-02T11:05:14;12.70;15.30
26164;DHT22;13914;48.178;11.716;2024-03-02T11:07:51;12.80;15.40
26164;DHT22;13914;48.178;11.716;2024-03-02T11:10:19;12.90;15.20
26164;DHT22;13914;48.178;11.716;2024-03-02T11:12:52;13.00;15.30
26164;DHT22;13914;48.178;11.716;2024-03-02T11:15:25;13.00;14.20
26164;DHT22;13914;48.178;11.716;2024-03-02T11:17:52;13.00;14.60
26164;DHT22;13914;48.178;11.716;2024-03-02T11:20:18;13.20;14.80
26164;DHT22;13914;48.178;11.716;2024-03-02T11:22:45;13.30;14.70
26164;DHT22;13914;48.178;11.716;2024-03-02T11:25:26;13.30;14.60
26164;DHT22;13914;48.178;11.716;2024-03-02T11:33:02;13.60;14.10
26164;DHT22;13914;48.178;11.716;2024-03-02T11:35:35;13.70;14.10
26164;DHT22;13914;48.178;11.716;2024-03-02T11:38:06;13.80;14.00
26164;DHT22;13914;48.178;11.716;2024-03-02T11:40:32;13.90;13.80
26164;DHT22;13914;48.178;11.716;2024-03-02T11:43:01;13.90;13.80
26164;DHT22;13914;48.178;11.716;2024-03-02T11:45:27;14.00;13.40
26164;DHT22;13914;48.178;11.716;2024-03-02T11:47:57;14.00;13.10
26164;DHT22;13914;48.178;11.716;2024-03-02T11:50:42;14.10;12.60
26164;DHT22;13914;48.178;11.716;2024-03-02T11:53:11;14.20;12.60
26164;DHT22;13914;48.178;11.716;2024-03-02T11:55:38;14.20;13.20
26164;DHT22;13914;48.178;11.716;2024-03-02T11:58:06;14.30;13.10
26164;DHT22;13914;48.178;11.716;2024-03-02T12:00:32;14.40;12.50
26164;DHT22;13914;48.178;11.716;2024-03-02T12:03:02;14.40;12.90
26164;DHT22;13914;48.178;11.716;2024-03-02T12:05:29;14.50;13.10
26164;DHT22;13914;48.178;11.716;2024-03-02T12:07:58;14.50;12.40
26164;DHT22;13914;48.178;11.716;2024-03-02T12:10:25;14.60;12.90
26164;DHT22;13914;48.178;11.716;2024-03-02T12:13:01;14.70;12.90
26164;DHT22;13914;48.178;11.716;2024-03-02T12:15:31;14.70;12.90
26164;DHT22;13914;48.178;11.716;2024-03-02T12:17:59;14.80;12.70
26164;DHT22;13914;48.178;11.716;2024-03-02T12:20:27;14.80;12.00
26164;DHT22;13914;48.178;11.716;2024-03-02T12:22:54;14.90;11.30
26164;DHT22;13914;48.178;11.716;2024-03-02T12:25:22;14.90;11.30
26164;DHT22;13914;48.178;11.716;2024-03-02T12:27:53;14.90;11.70
26164;DHT22;13914;48.178;11.716;2024-03-02T12:30:20;15.00;11.20
26164;DHT22;13914;48.178;11.716;2024-03-02T12:32:46;15.10;11.50
26164;DHT22;13914;48.178;11.716;2024-03-02T12:35:13;15.00;11.40
26164;DHT22;13914;48.178;11.716;2024-03-02T12:37:45;15.00;11.50
26164;DHT22;13914;48.178;11.716;2024-03-02T12:40:12;15.00;11.30
26164;DHT22;13914;48.178;11.716;2024-03-02T12:42:39;15.00;11.70
26164;DHT22;13914;48.178;11.716;2024-03-02T12:45:05;15.00;11.60
26164;DHT22;13914;48.178;11.716;2024-03-02T12:47:33;15.10;11.90
26164;DHT22;13914;48.178;11.716;2024-03-02T12:49:59;15.10;11.70
26164;DHT22;13914;48.178;11.716;2024-03-02T12:52:25;15.00;11.70
26164;DHT22;13914;48.178;11.716;2024-03-02T12:54:50;15.10;11.60
26164;DHT22;13914;48.178;11.716;2024-03-02T12:57:18;15.10;11.20
26164;DHT22;13914;48.178;11.716;2024-03-02T12:59:47;15.10;10.80
26164;DHT22;13914;48.178;11.716;2024-03-02T13:02:19;15.10;11.10
26164;DHT22;13914;48.178;11.716;2024-03-02T13:04:51;15.10;10.70
26164;DHT22;13914;48.178;11.716;2024-03-02T13:07:18;15.10;11.10
26164;DHT22;13914;48.178;11.716;2024-03-02T13:09:45;15.20;11.60
26164;DHT22;13914;48.178;11.716;2024-03-02T13:12:11;15.20;11.30
26164;DHT22;13914;48.178;11.716;2024-03-02T13:14:37;15.30;11.60
26164;DHT22;13914;48.178;11.716;2024-03-02T13:17:02;15.30;11.50
26164;DHT22;13914;48.178;11.716;2024-03-02T13:19:30;15.30;11.90
26164;DHT22;13914;48.178;11.716;2024-03-02T13:21:57;15.20;11.10
26164;DHT22;13914;48.178;11.716;2024-03-02T13:24:23;15.40;11.60
26164;DHT22;13914;48.178;11.716;2024-03-02T13:26:54;15.50;11.90
26164;DHT22;13914;48.178;11.716;2024-03-02T13:29:22;15.50;11.50
26164;DHT22;13914;48.178;11.716;2024-03-02T13:31:48;15.60;11.00
26164;DHT22;13914;48.178;11.716;2024-03-02T13:34:14;15.50;11.80
26164;DHT22;13914;48.178;11.716;2024-03-02T13:36:39;15.60;11.10
26164;DHT22;13914;48.178;11.716;2024-03-02T13:39:05;15.60;11.40
26164;DHT22;13914;48.178;11.716;2024-03-02T13:41:34;15.70;12.00
26164;DHT22;13914;48.178;11.716;2024-03-02T13:44:00;15.70;12.40
26164;DHT22;13914;48.178;11.716;2024-03-02T13:46:27;15.70;11.60
26164;DHT22;13914;48.178;11.716;2024-03-02T13:48:53;15.80;12.40
26164;DHT22;13914;48.178;11.716;2024-03-02T13:51:19;15.80;11.90
26164;DHT22;13914;48.178;11.716;2024-03-02T13:53:45;15.90;12.70
26164;DHT22;13914;48.178;11.716;2024-03-02T13:56:11;15.90;12.90
26164;DHT22;13914;48.178;11.716;2024-03-02T13:58:37;16.00;12.40
26164;DHT22;13914;48.178;11.716;2024-03-02T14:01:03;16.00;11.40
26164;DHT22;13914;48.178;11.716;2024-03-02T14:03:30;16.10;12.00
26164;DHT22;13914;48.178;11.716;2024-03-02T14:05:56;16.10;12.30
26164;DHT22;13914;48.178;11.716;2024-03-02T14:08:22;16.10;12.20
26164;DHT22;13914;48.178;11.716;2024-03-02T14:10:48;16.20;12.80
26164;DHT22;13914;48.178;11.716;2024-03-02T14:13:14;16.20;13.00
26164;DHT22;13914;48.178;11.716;2024-03-02T14:15:41;16.20;13.20
26164;DHT22;13914;48.178;11.716;2024-03-02T14:18:07;16.30;11.40
26164;DHT22;13914;48.178;11.716;2024-03-02T14:20:35;16.30;11.50
26164;DHT22;13914;48.178;11.716;2024-03-02T14:23:01;16.20;12.20
26164;DHT22;13914;48.178;11.716;2024-03-02T14:25:28;16.30;11.20
26164;DHT22;13914;48.178;11.716;2024-03-02T14:27:57;16.40;11.80
26164;DHT22;13914;48.178;11.716;2024-03-02T14:30:23;16.40;10.60
26164;DHT22;13914;48.178;11.716;2024-03-02T14:32:49;16.40;10.40
26164;DHT22;13914;48.178;11.716;2024-03-02T14:35:14;16.40;11.20
26164;DHT22;13914;48.178;11.716;2024-03-02T14:37:40;16.40;10.60
26164;DHT22;13914;48.178;11.716;2024-03-02T14:40:06;16.40;11.50
26164;DHT22;13914;48.178;11.716;2024-03-02T14:42:35;16.40;10.40
26164;DHT22;13914;48.178;11.716;2024-03-02T14:45:01;16.40;10.80
26164;DHT22;13914;48.178;11.716;2024-03-02T14:47:31;16.40;9.60
26164;DHT22;13914;48.178;11.716;2024-03-02T14:49:57;16.40;9.50
26164;DHT22;13914;48.178;11.716;2024-03-02T14:52:23;16.40;9.30
26164;DHT22;13914;48.178;11.716;2024-03-02T14:54:48;16.30;8.80
26164;DHT22;13914;48.178;11.716;2024-03-02T14:57:14;16.30;9.10
26164;DHT22;13914;48.178;11.716;2024-03-02T14:59:40;16.20;9.30
26164;DHT22;13914;48.178;11.716;2024-03-02T15:02:06;16.30;9.40
26164;DHT22;13914;48.178;11.716;2024-03-02T15:04:33;16.20;9.40
26164;DHT22;13914;48.178;11.716;2024-03-02T15:06:58;16.20;9.50
26164;DHT22;13914;48.178;11.716;2024-03-02T15:09:24;16.10;9.80
26164;DHT22;13914;48.178;11.716;2024-03-02T15:11:50;16.10;9.60
26164;DHT22;13914;48.178;11.716;2024-03-02T15:14:15;16.00;9.00
26164;DHT22;13914;48.178;11.716;2024-03-02T15:16:41;16.00;9.80
26164;DHT22;13914;48.178;11.716;2024-03-02T15:19:07;16.00;9.40
26164;DHT22;13914;48.178;11.716;2024-03-02T15:21:33;15.90;9.40
26164;DHT22;13914;48.178;11.716;2024-03-02T15:23:59;15.80;9.00
26164;DHT22;13914;48.178;11.716;2024-03-02T15:26:24;15.80;9.50
26164;DHT22;13914;48.178;11.716;2024-03-02T15:28:50;15.80;9.10
26164;DHT22;13914;48.178;11.716;2024-03-02T15:31:16;15.70;9.50